Tiempo atmosférico en la estación meteorológica de Tineo, Soto de la Barca, Asturias (285 m.)



Fecha
DESCASC
Temp. máxima en grados centígrados (hora)
DESCASC
Temp. mínima en grados centígrados (hora)
DESCASC
Temp. media en grados centígrados
DESCASC
Racha de viento máxima en m/sg (hora)
DESCASC
Velocidad máxima media en intervalos de 10 minutos(hora)
DESCASC
Precipitaciones diarias en mm
DESCASC
Precipitaciones de 00:00 a 06:00 en mm
DESCASC
Precipitaciones de 06:00 a 12:00 en mm
DESCASC
Precipitaciones de 12:00 a 18:00 en mm
DESCASC
Precipitaciones de 18:00 a 24:00 en mm
DESCASC

Gráficas

Temp. máximas Temp. mínimas Temp. medias Precipitaciones Rachas de viento máximas Velocidades máximas media en intervalos de 10 minutos

Datos horarios

Fecha y hora oficial Temperatura (ºC) Velocidad del viento (km/h) Dirección del viento Racha (km/h) Dirección de racha Precipitación (mm) Presión (hPa) Tendencia (hPa) Humedad (%)
2020-09-19 23:00:00 16.9 0 Calma 9 Sudeste 0 -- -- 91
2020-09-19 22:00:00 17.7 0 Calma 4 Sur 0 -- -- 89
2020-09-19 21:00:00 18.4 0 Calma 9 Sudoeste 0 -- -- 84
2020-09-19 20:00:00 19.6 3 Oeste 10 Noroeste 0 -- -- 78
2020-09-19 19:00:00 20.3 5 Noroeste 14 Noroeste 0 -- -- 73
2020-09-19 18:00:00 21.5 6 Noroeste 13 Norte 0 -- -- 69
2020-09-19 17:00:00 21.8 0 Calma 10 Este 0 -- -- 70
2020-09-19 16:00:00 21.3 5 Sudeste 14 Sudeste 0 -- -- 67
2020-09-19 15:00:00 20.7 6 Este 11 Este 0 -- -- 72
2020-09-19 14:00:00 19.7 6 Este 11 Este 0 -- -- 78
2020-09-19 13:00:00 18.7 4 Este 12 Oeste 0 -- -- 84
2020-09-19 12:00:00 17.6 8 Oeste 14 Noroeste 0 -- -- 85
2020-09-19 11:00:00 16.2 3 Sudoeste 9 Noroeste 0 -- -- 91
2020-09-19 10:00:00 15.2 3 Noroeste 5 Noroeste 0 -- -- 97
2020-09-19 09:00:00 15 0 Calma 4 Noroeste 0 -- -- 97
2020-09-19 08:00:00 14.9 3 Oeste 8 Oeste 0 -- -- 98
2020-09-19 07:00:00 15 0 Calma 5 Este 0 -- -- 97
2020-09-19 06:00:00 15.2 0 Calma 6 Este 0 -- -- 97
2020-09-19 05:00:00 15.3 0 Calma 4 Oeste 0 -- -- 97
2020-09-19 04:00:00 15.4 0 Calma 4 Sudeste 0 -- -- 97
2020-09-19 03:00:00 15.6 0 Calma 5 Noroeste 0 -- -- 97
2020-09-19 02:00:00 15.6 2 Oeste 5 Noroeste 0 -- -- 96
2020-09-19 01:00:00 15.9 2 Oeste 6 Noroeste 0 -- -- 96
2020-09-19 00:00:00 16 2 Sur 5 Noroeste 0 -- -- 96
2020-09-18 23:00:00 16.2 2 Sur 6 Oeste 0.2 -- -- 95
2020-09-18 22:00:00 16.8 2 Sudeste 9 Sudeste 0 -- -- 91
2020-09-18 21:00:00 17 4 Sur 14 Sudeste 0 -- -- 88
2020-09-18 20:00:00 18.2 4 Este 23 Sudeste 0.2 -- -- 85
2020-09-18 19:00:00 20.5 10 Este 21 Sudeste 0 -- -- 75
2020-09-18 18:00:00 20.5 7 Este 19 Nordeste 0 -- -- 75
2020-09-18 17:00:00 21.5 4 Sur 17 Sudeste 0 -- -- 77
2020-09-18 16:00:00 19.1 9 Sudeste 20 Sudeste 0 -- -- 84
2020-09-18 15:00:00 19.5 8 Sudeste 18 Sudeste 0 -- -- 82
2020-09-18 14:00:00 18.9 14 Sudeste 22 Sudeste 1 -- -- 89
2020-09-18 13:00:00 20.7 6 Sudeste 13 Sudeste 0 -- -- 82
2020-09-18 12:00:00 19.4 5 Sudeste 10 Este 0 -- -- 86
2020-09-18 11:00:00 17.6 2 Sudeste 10 Oeste 0 -- -- 98
2020-09-18 10:00:00 16.6 2 Oeste 8 Noroeste 0 -- -- 99
2020-09-18 09:00:00 16.4 2 Oeste 9 Sudoeste 0.2 -- -- 98
2020-09-18 08:00:00 16.5 6 Oeste 9 Oeste 0 -- -- 98
2020-09-18 07:00:00 16.7 3 Sudeste 13 Noroeste 0 -- -- 98
2020-09-18 06:00:00 16.8 2 Sudeste 8 Oeste 0 -- -- 98
2020-09-18 05:00:00 17.1 2 Sur 5 Noroeste 0 -- -- 98
2020-09-18 04:00:00 17.3 0 Calma 8 Oeste 0 -- -- 97
2020-09-18 03:00:00 17.6 0 Calma 10 Oeste 0 -- -- 98
2020-09-18 02:00:00 17.7 4 Sur 10 Oeste 2 -- -- 97
2020-09-18 01:00:00 17.8 0 Calma 7 Este 0 -- -- 95
2020-09-18 00:00:00 18.6 4 Este 14 Sudoeste 1.4 -- -- 94
2020-09-17 23:00:00 20.1 4 Este 13 Oeste 0 -- -- 85
2020-09-17 22:00:00 21.1 3 Sudoeste 15 Oeste 0 -- -- 77
2020-09-17 21:00:00 21.4 3 Sur 6 Sur 0 -- -- 76
2020-09-17 20:00:00 22.6 2 Sudoeste 10 Sudeste 0 -- -- 70
2020-09-17 19:00:00 23.8 3 Sur 10 Sur 0 -- -- 69
2020-09-17 18:00:00 25.9 3 Sudeste 12 Sudeste 0 -- -- 65
2020-09-17 17:00:00 25.1 3 Sur 9 Sudeste 0 -- -- 68
2020-09-17 16:00:00 22.7 4 Sudeste 14 Sudeste 0 -- -- 81
2020-09-17 15:00:00 22.2 2 Sudoeste 5 Este 0 -- -- 81
2020-09-17 14:00:00 21 0 Calma 6 Noroeste 0 -- -- 84
2020-09-17 13:00:00 19.8 3 Noroeste 9 Noroeste 0 -- -- 86
2020-09-17 12:00:00 18.5 4 Norte 9 Noroeste 0 -- -- 92
2020-09-17 11:00:00 17.8 0 Calma 5 Noroeste 0 -- -- 96
2020-09-17 10:00:00 17.2 0 Calma 6 Oeste 0.2 -- -- 97
2020-09-17 09:00:00 17 0 Calma 8 Oeste 0 -- -- 97
2020-09-17 08:00:00 17 2 Sudeste 4 Nordeste 0.2 -- -- 96
2020-09-17 07:00:00 17.1 2 Sur 5 Este 0.2 -- -- 95
2020-09-17 06:00:00 17.3 0 Calma 5 Oeste 0 -- -- 94
2020-09-17 05:00:00 18.1 0 Calma 15 Oeste 0 -- -- 91
2020-09-17 04:00:00 18.3 5 Sudoeste 31 Noroeste 0 -- -- 91
2020-09-17 03:00:00 19.4 6 Sudeste 15 Este 0 -- -- 91
2020-09-17 02:00:00 19.4 0 Calma 4 Sur 0 -- -- 91
2020-09-17 01:00:00 19.5 2 Este 8 Sudeste 0 -- -- 91
2020-09-17 00:00:00 19 4 Este 5 Este 0 -- -- 91
2020-09-16 23:00:00 19.8 4 Sudeste 13 Sudeste 0 -- -- 88
2020-09-16 22:00:00 20.7 6 Sur 16 Sudeste 0 -- -- 85
2020-09-16 21:00:00 22 8 Sudeste 15 Sudeste 0 -- -- 79
2020-09-16 20:00:00 23.5 6 Sudeste 13 Este 0 -- -- 70
2020-09-16 19:00:00 25.3 7 Este 21 Este 0 -- -- 63
2020-09-16 18:00:00 26.9 11 Este 21 Este 0 -- -- 60
2020-09-16 17:00:00 28.1 6 Nordeste 17 Este 0 -- -- 48
2020-09-16 16:00:00 28.6 6 Este 19 Sudeste 0 -- -- 45
2020-09-16 15:00:00 28.2 9 Sudeste 17 Este 0 -- -- 46
2020-09-16 14:00:00 25.3 6 Este 10 Este 0 -- -- 53
2020-09-16 13:00:00 22.1 4 Nordeste 8 Este 0 -- -- 70
2020-09-16 12:00:00 18.6 4 Sudeste 8 Sudeste 0 -- -- 81
2020-09-16 11:00:00 15.5 0 Calma 10 Noroeste 0 -- -- 92
2020-09-16 10:00:00 14.9 4 Oeste 12 Oeste 0 -- -- 94
2020-09-16 09:00:00 14.9 3 Oeste 9 Oeste 0 -- -- 95
2020-09-16 08:00:00 15.2 0 Calma 15 Oeste 0 -- -- 95
2020-09-16 07:00:00 15.6 5 Noroeste 10 Oeste 0 -- -- 95
2020-09-16 06:00:00 15.8 3 Noroeste 6 Noroeste 0 -- -- 95
2020-09-16 05:00:00 16 0 Calma 11 Norte 0 -- -- 96
2020-09-16 04:00:00 15.9 3 Oeste 8 Sur 0 -- -- 96
2020-09-16 03:00:00 15.9 2 Sudoeste 6 Sudoeste 0 -- -- 95
2020-09-16 02:00:00 16.2 3 Noroeste 5 Noroeste 0 -- -- 94
2020-09-16 01:00:00 17 0 Calma 4 Oeste 0 -- -- 93
2020-09-16 00:00:00 17.3 0 Calma 4 Noroeste 0 -- -- 92
2020-09-15 23:00:00 18.3 3 Oeste 4 Oeste 0 -- -- 90
2020-09-15 22:00:00 19.4 0 Calma 12 Sudeste 0 -- -- 85
2020-09-15 21:00:00 20.7 5 Sudeste 13 Sudeste 0 -- -- 80
2020-09-15 20:00:00 22.2 6 Este 19 Este 0 -- -- 72
2020-09-15 19:00:00 23.7 7 Este 25 Este 0 -- -- 64
2020-09-15 18:00:00 24.8 10 Este 22 Este 0 -- -- 65
2020-09-15 17:00:00 25.4 12 Este 22 Nordeste 0 -- -- 66
2020-09-15 16:00:00 25.8 8 Este 19 Este 0 -- -- 64
2020-09-15 15:00:00 25.1 8 Este 15 Este 0 -- -- 69
2020-09-15 14:00:00 24.3 5 Sudeste 10 Este 0 -- -- 71
2020-09-15 13:00:00 21.7 2 Norte 6 Sudeste 0 -- -- 82
2020-09-15 12:00:00 19.3 2 Sur 8 Este 0 -- -- 91
2020-09-15 11:00:00 17.5 3 Este 4 Nordeste 0 -- -- 97
2020-09-15 10:00:00 16.5 0 Calma 5 Este 0 -- -- 99
2020-09-15 09:00:00 16 0 Calma 3 Nordeste 0 -- -- 99
2020-09-15 08:00:00 15.8 0 Calma 4 Este 0 -- -- 99
2020-09-15 07:00:00 15.9 3 Noroeste 5 Noroeste 0 -- -- 98
2020-09-15 06:00:00 16.1 0 Calma 4 Sudeste 0 -- -- 98
2020-09-15 05:00:00 17 0 Calma 5 Noroeste 0 -- -- 97
2020-09-15 04:00:00 17.4 2 Sudoeste 5 Sur 0 -- -- 98
2020-09-15 03:00:00 17.9 0 Calma 6 Oeste 0 -- -- 98
2020-09-15 02:00:00 18 0 Calma 7 Este 0 -- -- 98
2020-09-15 01:00:00 18.1 5 Este 8 Este 0 -- -- 98
2020-09-15 00:00:00 18 2 Este 7 Oeste 0 -- -- 97
2020-09-14 23:00:00 17.9 3 Oeste 9 Oeste 0 -- -- 97
2020-09-14 22:00:00 18.1 4 Sudeste 9 Este 0.6 -- -- 95
2020-09-14 21:00:00 18.4 4 Sur 10 Sudeste 0 -- -- 94
2020-09-14 20:00:00 19.6 5 Sudeste 19 Sudeste 0 -- -- 89
2020-09-14 19:00:00 19.8 7 Sudeste 13 Sur 1 -- -- 90
2020-09-14 18:00:00 21.1 6 Sur 20 Sudeste 1 -- -- 80
2020-09-14 17:00:00 25.2 11 Este 22 Sudeste 0 -- -- 61
2020-09-14 16:00:00 25.6 9 Este 16 Este 0 -- -- 59
2020-09-14 15:00:00 22.6 4 Este 8 Noroeste 0 -- -- 69
2020-09-14 14:00:00 19.7 5 Noroeste 8 Noroeste 0 -- -- 83
2020-09-14 13:00:00 17.6 4 Oeste 7 Noroeste 0 -- -- 89
2020-09-14 12:00:00 17.5 0 Calma 9 Sudeste 0 -- -- 89
2020-09-14 11:00:00 17.2 5 Noroeste 8 Noroeste 0 -- -- 87
2020-09-14 10:00:00 17 2 Este 6 Noroeste 0 -- -- 90
2020-09-14 09:00:00 16.2 0 Calma 3 Este 0 -- -- 94
2020-09-14 08:00:00 15.8 0 Calma 3 Noroeste 0 -- -- 93
2020-09-14 07:00:00 16.1 0 Calma 4 Noroeste 0 -- -- 93
2020-09-14 06:00:00 16.3 0 Calma 2 Sudoeste 0 -- -- 93
2020-09-14 05:00:00 16.5 0 Calma 3 Noroeste 0 -- -- 92
2020-09-14 04:00:00 16.7 0 Calma 3 Sudoeste 0 -- -- 91
2020-09-14 03:00:00 17.4 0 Calma 3 Sur 0 -- -- 89
2020-09-14 02:00:00 18.1 2 Noroeste 4 Oeste 0 -- -- 87
2020-09-14 01:00:00 19 0 Calma 4 Sudoeste 0 -- -- 86
2020-09-14 00:00:00 19.9 0 Calma 4 Sudoeste 0 -- -- 82
2020-09-13 23:00:00 21.2 3 Oeste 5 Noroeste 0 -- -- 80
2020-09-13 22:00:00 22.5 0 Calma 6 Noroeste 0 -- -- 76
2020-09-13 21:00:00 23.5 2 Este 10 Sudeste 0 -- -- 71
2020-09-13 20:00:00 26.7 2 Sudeste 12 Este 0 -- -- 62
2020-09-13 19:00:00 29 4 Sur 21 Este 0 -- -- 52
2020-09-13 18:00:00 30.2 5 Sur 16 Norte 0 -- -- 43
2020-09-13 17:00:00 31.9 7 Sudeste 18 Sudeste 0 -- -- 43
2020-09-13 16:00:00 33.5 6 Este 11 Este 0 -- -- 43
2020-09-13 15:00:00 31.6 4 Sudeste 9 Este 0 -- -- 42
2020-09-13 14:00:00 29.5 2 Sudoeste 8 Este 0 -- -- 54
2020-09-13 13:00:00 25.8 3 Este 8 Sur 0 -- -- 59
2020-09-13 12:00:00 21.7 2 Oeste 6 Sudeste 0 -- -- 69
2020-09-13 11:00:00 17.9 3 Norte 6 Noroeste 0 -- -- 80
2020-09-13 10:00:00 14.9 0 Calma 10 Noroeste 0 -- -- 94
2020-09-13 09:00:00 14.8 8 Noroeste 11 Oeste 0 -- -- 94
2020-09-13 08:00:00 15.3 6 Oeste 10 Noroeste 0 -- -- 95
2020-09-13 07:00:00 15.9 5 Oeste 10 Noroeste 0 -- -- 95
2020-09-13 06:00:00 16.7 4 Oeste 9 Noroeste 0 -- -- 95
2020-09-13 05:00:00 17.3 5 Noroeste 9 Noroeste 0 -- -- 95
2020-09-13 04:00:00 17.9 3 Noroeste 9 Oeste 0 -- -- 93
2020-09-13 03:00:00 18.5 5 Oeste 9 Oeste 0 -- -- 91
2020-09-13 02:00:00 19.1 0 Calma 4 Oeste 0 -- -- 89
2020-09-13 01:00:00 19.2 0 Calma 4 Noroeste 0 -- -- 90
2020-09-13 00:00:00 19.1 0 Calma 5 Sudeste 0 -- -- 92
2020-09-12 23:00:00 18.7 4 Este 9 Sudeste 0 -- -- 91
2020-09-12 22:00:00 20.3 4 Sudeste 13 Sudeste 0 -- -- 87
2020-09-12 21:00:00 21.6 6 Sur 15 Sudeste 0 -- -- 82
2020-09-12 20:00:00 23.3 7 Sudeste 15 Este 0 -- -- 76
2020-09-12 19:00:00 25.4 8 Este 18 Este 0 -- -- 67
2020-09-12 18:00:00 26 9 Este 20 Este 0 -- -- 63
2020-09-12 17:00:00 26.2 13 Este 22 Este 0 -- -- 64
2020-09-12 16:00:00 26.4 10 Este 21 Este 0 -- -- 64
2020-09-12 15:00:00 26 8 Sudeste 16 Este 0 -- -- 64
2020-09-12 14:00:00 24.7 8 Nordeste 18 Este 0 -- -- 68
2020-09-12 13:00:00 23.4 5 Este 12 Este 0 -- -- 70
2020-09-12 12:00:00 21.6 5 Sur 12 Sudeste 0 -- -- 75
2020-09-12 11:00:00 19.6 7 Sur 13 Sudeste 0 -- -- 82
2020-09-12 10:00:00 18.7 2 Este 5 Este 0 -- -- 85
2020-09-12 09:00:00 18.3 0 Calma 5 Sudoeste 0 -- -- 86
2020-09-12 08:00:00 18.3 0 Calma 6 Oeste 0 -- -- 88
2020-09-12 07:00:00 18.6 4 Oeste 8 Oeste 0 -- -- 88
2020-09-12 06:00:00 19 3 Oeste 8 Oeste 0 -- -- 88
2020-09-12 05:00:00 19.2 2 Sur 6 Sudeste 0 -- -- 88
2020-09-12 04:00:00 19.5 3 Este 8 Este 0 -- -- 85
2020-09-12 03:00:00 19.7 3 Sudeste 9 Sur 0 -- -- 87
2020-09-12 02:00:00 20 2 Sudeste 6 Sur 0 -- -- 86
2020-09-12 01:00:00 20.3 0 Calma 4 Sudeste 0 -- -- 87
2020-09-12 00:00:00 20.5 0 Calma 8 Sudeste 0 -- -- 86
2020-09-11 23:00:00 20.8 5 Sudeste 10 Sudeste 0 -- -- 85
2020-09-11 22:00:00 20.9 4 Sudeste 15 Sudeste 0 -- -- 85
2020-09-11 21:00:00 21.2 10 Sudeste 17 Sudeste 0 -- -- 84
2020-09-11 20:00:00 22.9 10 Sudeste 17 Este 0 -- -- 78
2020-09-11 19:00:00 25.3 7 Este 22 Este 0 -- -- 69
2020-09-11 18:00:00 26.7 10 Este 22 Nordeste 0 -- -- 63
2020-09-11 17:00:00 27.3 12 Nordeste 23 Este 0 -- -- 57
2020-09-11 16:00:00 27.2 8 Este 17 Este 0 -- -- 59
2020-09-11 15:00:00 26 8 Sudeste 14 Este 0 -- -- 63
2020-09-11 14:00:00 24.3 9 Sudeste 14 Sudeste 0 -- -- 68
2020-09-11 13:00:00 21.8 9 Sudeste 15 Sudeste 0 -- -- 75
2020-09-11 12:00:00 18.5 6 Sur 12 Sudeste 0 -- -- 85
2020-09-11 11:00:00 17 3 Este 8 Sudeste 0 -- -- 90
2020-09-11 10:00:00 16.1 4 Oeste 7 Noroeste 0 -- -- 92
2020-09-11 09:00:00 16.2 2 Sur 5 Noroeste 0 -- -- 92
2020-09-11 08:00:00 16.4 0 Calma 3 Oeste 0 -- -- 92
2020-09-11 07:00:00 16.6 0 Calma 4 Oeste 0 -- -- 92
2020-09-11 06:00:00 16.9 0 Calma 4 Sur 0 -- -- 91
2020-09-11 05:00:00 17.2 2 Sudeste 4 Sudeste 0 -- -- 90
2020-09-11 04:00:00 17.3 3 Sudoeste 6 Oeste 0 -- -- 89
2020-09-11 03:00:00 17.4 0 Calma 8 Oeste 0 -- -- 90
2020-09-11 02:00:00 17.4 2 Oeste 9 Oeste 0 -- -- 89
2020-09-11 01:00:00 17.6 0 Calma 3 Norte 0 -- -- 91
2020-09-11 00:00:00 17.1 0 Calma 4 Este 0 -- -- 92
2020-09-10 23:00:00 17.5 2 Este 9 Sudeste 0 -- -- 88
2020-09-10 22:00:00 19.2 5 Sur 15 Sudeste 0 -- -- 85
2020-09-10 21:00:00 20.5 5 Sudeste 16 Sudeste 0 -- -- 78
2020-09-10 20:00:00 22.2 3 Este 19 Este 0 -- -- 71
2020-09-10 19:00:00 24.2 6 Este 24 Este 0 -- -- 62
2020-09-10 18:00:00 25.5 8 Este 20 Este 0 -- -- 55
2020-09-10 17:00:00 26.3 10 Nordeste 21 Este 0 -- -- 55
2020-09-10 16:00:00 26.3 6 Este 23 Este 0 -- -- 52
2020-09-10 15:00:00 25.7 10 Nordeste 17 Este 0 -- -- 51
2020-09-10 14:00:00 25.2 5 Este 13 Este 0 -- -- 58
2020-09-10 13:00:00 23.5 5 Este 12 Este 0 -- -- 63
2020-09-10 12:00:00 20.6 4 Este 9 Este 0 -- -- 76
2020-09-10 11:00:00 17.5 4 Sudoeste 13 Oeste 0 -- -- 87
2020-09-10 10:00:00 16.4 4 Noroeste 11 Noroeste 0 -- -- 90
2020-09-10 09:00:00 16.2 3 Noroeste 6 Oeste 0 -- -- 92
2020-09-10 08:00:00 16.2 2 Oeste 7 Oeste 0 -- -- 92
2020-09-10 07:00:00 16.1 2 Oeste 6 Oeste 0 -- -- 90
2020-09-10 06:00:00 16.2 0 Calma 5 Oeste 0 -- -- 91
2020-09-10 05:00:00 16.2 0 Calma 4 Sudeste 0 -- -- 91
2020-09-10 04:00:00 16.2 0 Calma 3 Noroeste 0 -- -- 90
2020-09-10 03:00:00 16.1 0 Calma 4 Oeste 0 -- -- 91
2020-09-10 02:00:00 16 0 Calma 2 Noroeste 0 -- -- 92
2020-09-10 01:00:00 16.5 0 Calma 5 Este 0 -- -- 90
2020-09-10 00:00:00 16.9 0 Calma 14 Sudeste 0 -- -- 88
2020-09-09 23:00:00 17.9 4 Sudeste 12 Sudeste 0 -- -- 84
2020-09-09 22:00:00 19.2 9 Sudeste 19 Sudeste 0 -- -- 78
2020-09-09 21:00:00 20.3 5 Sudeste 18 Este 0 -- -- 75
2020-09-09 20:00:00 22.1 5 Sudeste 25 Sudeste 0 -- -- 70
2020-09-09 19:00:00 24.2 8 Este 25 Este 0 -- -- 65
2020-09-09 18:00:00 25.2 9 Nordeste 23 Este 0 -- -- 61
2020-09-09 17:00:00 25.9 10 Este 23 Nordeste 0 -- -- 58
2020-09-09 16:00:00 25.9 10 Nordeste 21 Nordeste 0 -- -- 55
2020-09-09 15:00:00 25.3 6 Este 21 Este 0 -- -- 54
2020-09-09 14:00:00 24.2 6 Este 17 Este 0 -- -- 61
2020-09-09 13:00:00 21.6 6 Este 11 Nordeste 0 -- -- 70
2020-09-09 12:00:00 17.2 2 Sudeste 9 Nordeste 0 -- -- 83
2020-09-09 11:00:00 13.7 3 Sudeste 9 Noroeste 0 -- -- 92
2020-09-09 10:00:00 12.6 5 Noroeste 10 Oeste 0 -- -- 96
2020-09-09 09:00:00 12.1 5 Noroeste 10 Noroeste 0 -- -- 97
2020-09-09 08:00:00 12.4 2 Sudeste 5 Sudeste 0 -- -- 97
2020-09-09 07:00:00 12.4 2 Este 4 Este 0 -- -- 97
2020-09-09 06:00:00 12 0 Calma 3 Sudeste 0 -- -- 97
2020-09-09 05:00:00 11.5 0 Calma 2 Noroeste 0 -- -- 96
2020-09-09 04:00:00 11.8 0 Calma 3 Oeste 0 -- -- 95
2020-09-09 03:00:00 12.4 0 Calma 3 Sudoeste 0 -- -- 94
2020-09-09 02:00:00 13.1 0 Calma 4 Noroeste 0 -- -- 93
2020-09-09 01:00:00 14 0 Calma 2 Sudoeste 0 -- -- 90
2020-09-09 00:00:00 14.9 0 Calma 3 Nordeste 0 -- -- 88
2020-09-08 23:00:00 16.8 4 Sur 14 Sur 0 -- -- 82
2020-09-08 22:00:00 18.1 7 Sur 17 Sudeste 0 -- -- 77
2020-09-08 21:00:00 19.3 9 Sudeste 20 Este 0 -- -- 72
2020-09-08 20:00:00 20.9 7 Este 19 Este 0 -- -- 67
2020-09-08 19:00:00 22.9 11 Este 20 Este 0 -- -- 59
2020-09-08 18:00:00 24 10 Nordeste 21 Este 0 -- -- 54
2020-09-08 17:00:00 24.1 11 Nordeste 23 Sudeste 0 -- -- 54
2020-09-08 16:00:00 23.6 11 Sudeste 19 Este 0 -- -- 57
2020-09-08 15:00:00 22.5 10 Sudeste 23 Este 0 -- -- 56
2020-09-08 14:00:00 21.5 9 Este 24 Este 0 -- -- 59
2020-09-08 13:00:00 20.8 13 Este 29 Norte 0 -- -- 56
2020-09-08 12:00:00 19.3 7 Sudeste 17 Sudeste 0 -- -- 61
2020-09-08 11:00:00 16.3 2 Este 5 Este 0 -- -- 77
2020-09-08 10:00:00 13 0 Calma 5 Noroeste 0 -- -- 92
2020-09-08 09:00:00 10.7 2 Norte 4 Norte 0 -- -- 97
2020-09-08 08:00:00 9.6 0 Calma 2 Noroeste 0 -- -- 96
2020-09-08 07:00:00 10.1 0 Calma 2 Este 0 -- -- 95
2020-09-08 06:00:00 10.7 0 Calma 3 Noroeste 0 -- -- 95
2020-09-08 05:00:00 11.4 0 Calma 3 Noroeste 0 -- -- 95
2020-09-08 04:00:00 12.2 2 Oeste 3 Oeste 0 -- -- 94
2020-09-08 03:00:00 12.8 0 Calma 2 Noroeste 0 -- -- 91
2020-09-08 02:00:00 13.9 2 Sur 12 Sudeste 0 -- -- 88
2020-09-08 01:00:00 15.3 9 Sudeste 18 Sudeste 0 -- -- 84
2020-09-08 00:00:00 15.8 9 Sudeste 15 Sur 0 -- -- 82
2020-09-07 23:00:00 15.8 3 Sur 19 Este 0 -- -- 82
2020-09-07 22:00:00 16.6 7 Este 20 Nordeste 0 -- -- 78
2020-09-07 21:00:00 17.6 10 Este 23 Nordeste 0 -- -- 74
2020-09-07 20:00:00 18.9 10 Este 26 Nordeste 0 -- -- 70
2020-09-07 19:00:00 20.1 15 Nordeste 29 Nordeste 0 -- -- 67
2020-09-07 18:00:00 21.3 15 Este 30 Este 0 -- -- 61
2020-09-07 17:00:00 21.8 13 Nordeste 28 Nordeste 0 -- -- 60
2020-09-07 16:00:00 22.4 13 Este 34 Nordeste 0 -- -- 55
2020-09-07 15:00:00 21.9 18 Este 42 Nordeste 0 -- -- 56
2020-09-07 14:00:00 21.5 16 Este 33 Este 0 -- -- 54
2020-09-07 13:00:00 21 13 Este 27 Este 0 -- -- 56
2020-09-07 12:00:00 19.9 12 Sudeste 25 Sudeste 0 -- -- 59
2020-09-07 11:00:00 18.6 13 Sudeste 25 Este 0 -- -- 60
2020-09-07 10:00:00 17.4 11 Sudeste 19 Sudeste 0 -- -- 68
2020-09-07 09:00:00 15.4 5 Sudeste 20 Este 0 -- -- 79
2020-09-07 08:00:00 14.8 6 Sudeste 18 Este 0 -- -- 82
2020-09-07 07:00:00 14.9 4 Sudeste 13 Sudeste 0 -- -- 83
2020-09-07 06:00:00 14.5 6 Sudeste 15 Nordeste 0 -- -- 85
2020-09-07 05:00:00 14.8 3 Este 12 Sudeste 0 -- -- 85
2020-09-07 04:00:00 15.2 4 Sudeste 9 Sudeste 0 -- -- 85
2020-09-07 03:00:00 15.4 5 Sudeste 10 Sudeste 0 -- -- 83
2020-09-07 02:00:00 15.7 4 Este 17 Nordeste 0 -- -- 82
2020-09-07 01:00:00 15.9 4 Este 13 Este 0 -- -- 82
2020-09-07 00:00:00 16 6 Este 18 Este 0 -- -- 82
2020-09-06 23:00:00 16.2 10 Este 24 Nordeste 0 -- -- 81
2020-09-06 22:00:00 16.2 10 Este 16 Este 0 -- -- 82
2020-09-06 21:00:00 16.8 6 Este 20 Nordeste 0 -- -- 80
2020-09-06 20:00:00 17.6 10 Este 19 Este 0 -- -- 77
2020-09-06 19:00:00 17.9 9 Este 18 Este 0 -- -- 76
2020-09-06 18:00:00 17.8 8 Este 23 Este 0 -- -- 77
2020-09-06 17:00:00 18.1 10 Este 20 Sudeste 0 -- -- 78
2020-09-06 16:00:00 17.7 8 Este 21 Este 0 -- -- 78
2020-09-06 15:00:00 17.7 4 Este 19 Este 0 -- -- 79
2020-09-06 14:00:00 17.8 8 Este 18 Sudeste 0 -- -- 79
2020-09-06 13:00:00 17.4 9 Este 22 Este 0 -- -- 79
2020-09-06 12:00:00 16.4 9 Nordeste 22 Este 0 -- -- 83
2020-09-06 11:00:00 15.9 10 Este 21 Nordeste 0 -- -- 86
2020-09-06 10:00:00 15.1 6 Este 13 Sudeste 0 -- -- 89
2020-09-06 09:00:00 14.8 7 Este 20 Sudeste 0 -- -- 89
2020-09-06 08:00:00 14.9 10 Sudeste 19 Sudeste 0 -- -- 89
2020-09-06 07:00:00 15 7 Sudeste 17 Este 0 -- -- 90
2020-09-06 06:00:00 15.1 6 Este 18 Nordeste 0 -- -- 91
2020-09-06 05:00:00 15.6 8 Sudeste 20 Este 0 -- -- 91
2020-09-06 04:00:00 16.1 5 Sudeste 13 Este 0 -- -- 91
2020-09-06 03:00:00 16.3 5 Sudeste 13 Sur 0 -- -- 92
2020-09-06 02:00:00 16.4 6 Sudeste 11 Sudeste 0 -- -- 91
2020-09-06 01:00:00 16.4 4 Sudeste 13 Este 0 -- -- 92
2020-09-06 00:00:00 16.3 5 Sudeste 13 Nordeste 0 -- -- 92
2020-09-05 23:00:00 16.6 8 Sudeste 20 Este 0 -- -- 91
2020-09-05 22:00:00 17 6 Sudeste 18 Sudeste 0 -- -- 91
2020-09-05 21:00:00 17.4 9 Este 21 Este 0 -- -- 89
2020-09-05 20:00:00 18.2 6 Este 19 Sudeste 0 -- -- 87
2020-09-05 19:00:00 18.4 10 Sudeste 23 Sudeste 0 -- -- 85
2020-09-05 18:00:00 18.6 7 Sudeste 15 Sudeste 0 -- -- 86
2020-09-05 17:00:00 18.5 8 Sudeste 14 Este 0 -- -- 87
2020-09-05 16:00:00 18.5 7 Este 19 Este 0 -- -- 87
2020-09-05 15:00:00 18.6 8 Este 22 Este 0 -- -- 84
2020-09-05 14:00:00 18.4 8 Sudeste 27 Este 0 -- -- 86
2020-09-05 13:00:00 18.3 7 Este 23 Nordeste 0 -- -- 87
2020-09-05 12:00:00 17.7 6 Este 17 Sudeste 0 -- -- 90
2020-09-05 11:00:00 17.4 11 Sudeste 18 Sudeste 0 -- -- 89
2020-09-05 10:00:00 17.2 6 Sudeste 22 Sur 0 -- -- 89
2020-09-05 09:00:00 17.7 7 Sudeste 22 Este 0 -- -- 90
2020-09-05 08:00:00 17.9 6 Sudeste 13 Sur 0 -- -- 92
2020-09-05 07:00:00 17.7 0 Calma 5 Noroeste 0 -- -- 92
2020-09-05 06:00:00 18 0 Calma 2 Noroeste 0 -- -- 90
2020-09-05 05:00:00 17.9 0 Calma 3 Noroeste 0 -- -- 89
2020-09-05 04:00:00 17.7 0 Calma 3 Sur 0 -- -- 88
2020-09-05 03:00:00 17.3 0 Calma 8 Oeste 0 -- -- 88
2020-09-05 02:00:00 17.1 2 Noroeste 5 Noroeste 0 -- -- 87
2020-09-05 01:00:00 17 0 Calma 4 Noroeste 0 -- -- 89
2020-09-05 00:00:00 18.1 2 Noroeste 5 Oeste 0 -- -- 87
2020-09-04 23:00:00 19.2 0 Calma 4 Sur 0 -- -- 81
2020-09-04 22:00:00 20.5 0 Calma 5 Sudoeste 0 -- -- 77
2020-09-04 21:00:00 22.9 4 Sur 12 Sudeste 0 -- -- 68
2020-09-04 20:00:00 25.1 7 Sur 15 Sudeste 0 -- -- 60
2020-09-04 19:00:00 29 8 Este 21 Este 0 -- -- 47
2020-09-04 18:00:00 30.4 10 Este 24 Este 0 -- -- 48
2020-09-04 17:00:00 31.7 11 Este 25 Nordeste 0 -- -- 51
2020-09-04 16:00:00 32.5 13 Este 20 Este 0 -- -- 45
2020-09-04 15:00:00 32.1 5 Este 12 Este 0 -- -- 41
2020-09-04 14:00:00 30 3 Este 7 Sudeste 0 -- -- 51
2020-09-04 13:00:00 26.7 2 Sudeste 8 Nordeste 0 -- -- 64
2020-09-04 12:00:00 22.6 2 Este 6 Este 0 -- -- 73
2020-09-04 11:00:00 18.7 0 Calma 7 Sudeste 0 -- -- 87
2020-09-04 10:00:00 15.6 3 Este 7 Noroeste 0 -- -- 97
2020-09-04 09:00:00 14.8 3 Oeste 8 Oeste 0 -- -- 98
2020-09-04 08:00:00 14.5 0 Calma 5 Sudeste 0 -- -- 98
2020-09-04 07:00:00 14.2 2 Sudeste 3 Sudeste 0 -- -- 97
2020-09-04 06:00:00 14.5 0 Calma 2 Oeste 0 -- -- 96
2020-09-04 05:00:00 15 2 Oeste 4 Oeste 0 -- -- 96
2020-09-04 04:00:00 15.5 0 Calma 3 Noroeste 0 -- -- 95
2020-09-04 03:00:00 16.1 0 Calma 2 Oeste 0 -- -- 94
2020-09-04 02:00:00 16.7 0 Calma 3 Oeste 0 -- -- 94
2020-09-04 01:00:00 17.5 0 Calma 3 Oeste 0 -- -- 92
2020-09-04 00:00:00 18.4 0 Calma 3 Noroeste 0 -- -- 90
2020-09-03 23:00:00 19.7 0 Calma 3 Sudoeste 0 -- -- 87
2020-09-03 22:00:00 21 0 Calma 7 Sudeste 0 -- -- 82
2020-09-03 21:00:00 23.6 5 Sudeste 13 Sudeste 0 -- -- 73
2020-09-03 20:00:00 25.2 5 Sudeste 12 Este 0 -- -- 69
2020-09-03 19:00:00 28.2 5 Este 15 Sudeste 0 -- -- 59
2020-09-03 18:00:00 29 4 Sudeste 18 Este 0 -- -- 55
2020-09-03 17:00:00 29.3 5 Sudeste 19 Este 0 -- -- 54
2020-09-03 16:00:00 29.2 9 Este 22 Este 0 -- -- 53
2020-09-03 15:00:00 29 10 Este 19 Sudeste 0 -- -- 52
2020-09-03 14:00:00 27.3 6 Sudeste 11 Este 0 -- -- 60
2020-09-03 13:00:00 23.6 3 Este 7 Este 0 -- -- 69
2020-09-03 12:00:00 19.7 3 Nordeste 9 Sudeste 0 -- -- 80
2020-09-03 11:00:00 15.9 0 Calma 8 Noroeste 0 -- -- 92
2020-09-03 10:00:00 14.9 3 Norte 8 Oeste 0 -- -- 95
2020-09-03 09:00:00 14.6 3 Noroeste 9 Oeste 0 -- -- 96
2020-09-03 08:00:00 14.6 3 Noroeste 7 Noroeste 0 -- -- 97
2020-09-03 07:00:00 14.5 0 Calma -- -- 0 -- -- 98
2020-09-03 06:00:00 14.4 0 Calma -- -- 0 -- -- 98
2020-09-03 05:00:00 14.3 0 Calma -- -- 0 -- -- 97
2020-09-03 04:00:00 14 0 Calma -- -- 0 -- -- 96
2020-09-03 03:00:00 13.8 0 Calma -- -- 0 -- -- 95
2020-09-03 02:00:00 14.5 0 Calma 3 Oeste 0 -- -- 94
2020-09-03 01:00:00 15.3 0 Calma 3 Oeste 0 -- -- 93
2020-09-03 00:00:00 16 0 Calma 3 Sudeste 0 -- -- 91
2020-09-02 23:00:00 17.2 0 Calma 9 Sudeste 0 -- -- 86
2020-09-02 22:00:00 18.8 5 Sur 16 Sudeste 0 -- -- 82
2020-09-02 21:00:00 19.8 6 Sur 13 Nordeste 0 -- -- 79
2020-09-02 20:00:00 21.6 4 Este 18 Este 0 -- -- 72
2020-09-02 19:00:00 23.3 5 Este 22 Este 0 -- -- 67
2020-09-02 18:00:00 24.2 10 Este 26 Este 0 -- -- 65
2020-09-02 17:00:00 24.9 10 Este 23 Nordeste 0 -- -- 60
2020-09-02 16:00:00 24.6 9 Nordeste 18 Este 0 -- -- 59
2020-09-02 15:00:00 23.9 10 Este 16 Este 0 -- -- 62
2020-09-02 14:00:00 22.7 9 Este 19 Este 0 -- -- 62
2020-09-02 13:00:00 21.9 6 Sudeste 15 Este 0 -- -- 65
2020-09-02 12:00:00 20.4 4 Nordeste 12 Este 0 -- -- 67
2020-09-02 11:00:00 18.9 4 Noroeste 8 Noroeste 0 -- -- 72
2020-09-02 10:00:00 17.1 4 Este 7 Este 0 -- -- 82
2020-09-02 09:00:00 14.7 2 Este 5 Oeste 0 -- -- 93
2020-09-02 08:00:00 13.8 0 Calma 7 Sudoeste 0 -- -- 92
2020-09-02 07:00:00 15.1 0 Calma 4 Oeste 0 -- -- 89
2020-09-02 06:00:00 15.5 0 Calma 5 Sudeste 0 -- -- 90
2020-09-02 05:00:00 15.4 0 Calma 3 Este 0 -- -- 90
2020-09-02 04:00:00 15.8 0 Calma 8 Sudeste 0 -- -- 88
2020-09-02 03:00:00 15.7 0 Calma 10 Sudeste 0 -- -- 88
2020-09-02 02:00:00 16.2 6 Sudeste 15 Este 0 -- -- 83
2020-09-02 01:00:00 16.5 6 Sudeste 14 Sudeste 0 -- -- 83
2020-09-02 00:00:00 16.7 5 Sudeste 15 Sudeste 0 -- -- 82
2020-09-01 23:00:00 16.7 6 Sudeste 15 Sudeste 0 -- -- 82
2020-09-01 22:00:00 17.3 7 Sudeste 17 Sudeste 0 -- -- 81
2020-09-01 21:00:00 17.6 8 Sudeste 17 Sudeste 0 -- -- 79
2020-09-01 20:00:00 18.6 8 Este 18 Sudeste 0 -- -- 76
2020-09-01 19:00:00 20 9 Este 21 Este 0 -- -- 71
2020-09-01 18:00:00 20.9 8 Este 24 Este 0 -- -- 67
2020-09-01 17:00:00 22.6 13 Este 24 Este 0 -- -- 63
2020-09-01 16:00:00 22.1 10 Este 20 Nordeste 0 -- -- 64
2020-09-01 15:00:00 22.6 8 Este 23 Nordeste 0 -- -- 57
2020-09-01 14:00:00 22.4 6 Este 19 Este 0 -- -- 61
2020-09-01 13:00:00 21.6 8 Sudeste 21 Noroeste 0 -- -- 62
2020-09-01 12:00:00 19.8 5 Sudeste -- -- -- -- -- 71
2020-09-01 11:00:00 -- 3 Este 8 Nordeste 0 -- -- --
2020-09-01 10:00:00 12.6 0 Calma 6 Oeste 0 -- -- 97
2020-09-01 09:00:00 12.1 3 Noroeste 8 Oeste 0 -- -- 97
2020-09-01 08:00:00 11.8 0 Calma 4 Oeste 0 -- -- 96
2020-09-01 07:00:00 12.2 0 Calma 3 Oeste 0 -- -- 96
2020-09-01 06:00:00 12.7 0 Calma 3 Oeste 0 -- -- 96
2020-09-01 05:00:00 12.9 0 Calma 3 Noroeste 0 -- -- 95
2020-09-01 04:00:00 13.3 0 Calma 3 Noroeste 0 -- -- 94
2020-09-01 03:00:00 13.8 3 Oeste 4 Noroeste 0 -- -- 94
2020-09-01 02:00:00 14.2 0 Calma 4 Noroeste 0 -- -- 92
2020-09-01 01:00:00 14.6 0 Calma 3 Sudoeste 0 -- -- 91
2020-09-01 00:00:00 15.2 0 Calma 3 Noroeste 0 -- -- 89
2020-08-31 23:00:00 15.7 0 Calma 4 Este 0 -- -- 84
2020-08-31 22:00:00 17.2 3 Sudeste 11 Sudeste 0 -- -- 81
2020-08-31 21:00:00 18.8 8 Sudeste 12 Este 0 -- -- 72
2020-08-31 20:00:00 20.5 8 Sudeste 19 Este 0 -- -- 69
2020-08-31 19:00:00 21.7 6 Este 20 Este 0 -- -- 64
2020-08-31 18:00:00 22.3 10 Este 26 Este 0 -- -- 59
2020-08-31 17:00:00 23.5 4 Sudeste 21 Este 0 -- -- 57
2020-08-31 16:00:00 23.9 6 Noroeste 19 Oeste 0 -- -- 41
2020-08-31 15:00:00 22.4 2 Noroeste 5 Nordeste 0 -- -- 62
2020-08-31 14:00:00 21.3 3 Este 5 Sudeste 0 -- -- 55
2020-08-31 13:00:00 17.5 2 Este 5 Sudeste 0 -- -- 67
2020-08-31 12:00:00 13.3 2 Noroeste 6 Este 0 -- -- 88
2020-08-31 11:00:00 10.1 2 Norte 6 Noroeste 0 -- -- 97
2020-08-31 10:00:00 9 2 Sur 8 Oeste 0 -- -- 98
2020-08-31 09:00:00 8.6 3 Oeste 9 Noroeste 0 -- -- 98
2020-08-31 08:00:00 8.7 0 Calma 9 Noroeste 0 -- -- 99
2020-08-31 07:00:00 8.8 2 Oeste 5 Oeste 0 -- -- 98
2020-08-31 06:00:00 9 0 Calma 4 Sudeste 0 -- -- 98
2020-08-31 05:00:00 9 2 Oeste 5 Oeste 0 -- -- 98
2020-08-31 04:00:00 9.1 2 Oeste 4 Sudoeste 0 -- -- 97
2020-08-31 03:00:00 9.3 0 Calma 4 Noroeste 0 -- -- 97
2020-08-31 02:00:00 9.8 0 Calma 4 Oeste 0 -- -- 95
2020-08-31 01:00:00 10.4 0 Calma 4 Oeste 0 -- -- 94
2020-08-31 00:00:00 11.4 0 Calma 3 Oeste 0 -- -- 91
2020-08-30 23:00:00 12.6 0 Calma 10 Sudeste 0 -- -- 88
2020-08-30 22:00:00 14 4 Sudeste 16 Sudeste 0 -- -- 82
2020-08-30 21:00:00 15 4 Sudeste 13 Este 0 -- -- 77
2020-08-30 20:00:00 16.1 3 Este 16 Sudeste 0 -- -- 71
2020-08-30 19:00:00 17.2 6 Sudeste 15 Este 0 -- -- 68
2020-08-30 18:00:00 16.9 10 Sudeste 20 Este 0 -- -- 66
2020-08-30 17:00:00 16.3 3 Sudeste 10 Sudeste 0 -- -- 72
2020-08-30 16:00:00 14.7 6 Sudeste 13 Este 0 -- -- 81
2020-08-30 15:00:00 14.8 9 Sudeste 15 Este 0 -- -- 85
2020-08-30 14:00:00 14.2 2 Sudeste 11 Este 0 -- -- 85
2020-08-30 13:00:00 13.8 3 Sudoeste 13 Noroeste 0 -- -- 91
2020-08-30 12:00:00 14.3 4 Noroeste 14 Noroeste 0 -- -- 88
2020-08-30 11:00:00 13.4 6 Noroeste 15 Noroeste 0 -- -- 95
2020-08-30 10:00:00 12.8 2 Este 4 Este 0 -- -- 100
2020-08-30 09:00:00 11.4 0 Calma 6 Oeste 0 -- -- 100
2020-08-30 08:00:00 11.2 3 Oeste 6 Oeste 0.2 -- -- 99
2020-08-30 07:00:00 11.6 0 Calma 6 Oeste 1.4 -- -- 100
2020-08-30 06:00:00 11.6 0 Calma 3 Oeste 0 -- -- 99
2020-08-30 05:00:00 11.7 2 Oeste 4 Oeste 0.2 -- -- 99
2020-08-30 04:00:00 11.7 0 Calma 4 Sudoeste 0 -- -- 99
2020-08-30 03:00:00 11.8 0 Calma 4 Nordeste 0.6 -- -- 99
2020-08-30 02:00:00 11.8 0 Calma 6 Este 3 -- -- 99
2020-08-30 01:00:00 12.1 2 Sur 7 Noroeste 2 -- -- 99
2020-08-30 00:00:00 12.1 2 Sudoeste 4 Oeste 0 -- -- 99
2020-08-29 23:00:00 12.7 2 Este 8 Sudeste 3.8 -- -- 98
2020-08-29 22:00:00 12.8 3 Sudeste 8 Sudeste 0.4 -- -- 98
2020-08-29 21:00:00 13.5 2 Sudoeste 5 Sudoeste 0.4 -- -- 97
2020-08-29 20:00:00 13.8 0 Calma 19 Norte 2.6 -- -- 96
2020-08-29 19:00:00 15.3 3 Este 8 Nordeste 0 -- -- 90
2020-08-29 18:00:00 14.7 0 Calma 14 Noroeste 1.2 -- -- 95
2020-08-29 17:00:00 15.2 2 Norte 18 Oeste 1.2 -- -- 91
2020-08-29 16:00:00 15.7 5 Este 12 Oeste 0.2 -- -- 91
2020-08-29 15:00:00 14.8 4 Sudeste 14 Sur 1.4 -- -- 97
2020-08-29 14:00:00 13.3 3 Noroeste 5 Noroeste 6.8 -- -- 98
2020-08-29 13:00:00 13.3 3 Sudeste 5 Este 2.2 -- -- 98
2020-08-29 12:00:00 13 0 Calma 5 Sur 4.8 -- -- 99
2020-08-29 11:00:00 12.6 2 Sudeste 6 Oeste 4.2 -- -- 98
2020-08-29 10:00:00 12.6 0 Calma 4 Oeste 3.4 -- -- 98
2020-08-29 09:00:00 12.4 0 Calma 6 Norte 2.8 -- -- 98
2020-08-29 08:00:00 12.4 2 Sur 8 Oeste 0.8 -- -- 97
2020-08-29 07:00:00 12.3 2 Oeste 8 Oeste 0.6 -- -- 97
2020-08-29 06:00:00 12.2 4 Sudoeste 8 Oeste 0.4 -- -- 96
2020-08-29 05:00:00 12.5 6 Oeste 9 Oeste 1.4 -- -- 96
2020-08-29 04:00:00 12.5 5 Oeste 12 Oeste 1.8 -- -- 96
2020-08-29 03:00:00 12.6 2 Noroeste 8 Oeste 0 -- -- 95
2020-08-29 02:00:00 12.6 0 Calma 8 Oeste 0.4 -- -- 95
2020-08-29 01:00:00 13.1 4 Sudoeste 10 Oeste 1.2 -- -- 89
2020-08-29 00:00:00 13.6 3 Sudoeste 11 Oeste 0 -- -- 82
2020-08-28 23:00:00 13.3 2 Oeste 4 Sudoeste 0 -- -- 83
2020-08-28 22:00:00 14.3 2 Sudoeste 6 Sudoeste 0 -- -- 79
2020-08-28 21:00:00 16.4 3 Noroeste 25 Oeste 0 -- -- 69
2020-08-28 20:00:00 17.8 7 Noroeste 23 Noroeste 0 -- -- 62
2020-08-28 19:00:00 18.1 10 Oeste 30 Noroeste 0 -- -- 61
2020-08-28 18:00:00 18.9 8 Oeste 31 Norte 0 -- -- 60
2020-08-28 17:00:00 20.8 7 Noroeste 27 Noroeste 0 -- -- 54
2020-08-28 16:00:00 20.8 11 Noroeste 33 Noroeste 0 -- -- 58
2020-08-28 15:00:00 20.2 11 Noroeste 33 Noroeste 0 -- -- 53
2020-08-28 14:00:00 20.1 15 Noroeste 27 Noroeste 0 -- -- 55
2020-08-28 13:00:00 18.6 7 Noroeste 39 Noroeste 0 -- -- 65
2020-08-28 12:00:00 18.6 4 Noroeste 20 Noroeste 0 -- -- 62
2020-08-28 11:00:00 18.5 6 Noroeste 15 Noroeste 0 -- -- 63
2020-08-28 10:00:00 16.7 0 Calma 5 Este 0 -- -- 80
2020-08-28 09:00:00 15.2 0 Calma 4 Sudoeste 0 -- -- 91
2020-08-28 08:00:00 13.8 2 Sudoeste 5 Sudoeste 0 -- -- 94
2020-08-28 07:00:00 15 0 Calma 4 Este 0 -- -- 96
2020-08-28 06:00:00 15.4 0 Calma 4 Oeste 0 -- -- 96
2020-08-28 05:00:00 16.1 2 Sur 5 Oeste 0 -- -- 95
2020-08-28 04:00:00 16.7 3 Oeste 5 Sudoeste 0 -- -- 94
2020-08-28 03:00:00 17.7 3 Sudoeste 19 Oeste 0.4 -- -- 92
2020-08-28 02:00:00 19 5 Noroeste 17 Noroeste 0.4 -- -- 91
2020-08-28 01:00:00 20 2 Nordeste 6 Sudeste 0.4 -- -- 91
2020-08-28 00:00:00 21.1 0 Calma 9 Sudeste 0 -- -- 87
2020-08-27 23:00:00 21.6 4 Sudeste 14 Sudeste 0 -- -- 81
2020-08-27 22:00:00 22.1 9 Sudeste 18 Sudeste 0 -- -- 80
2020-08-27 21:00:00 23.3 8 Sudeste 14 Norte 0 -- -- 78
2020-08-27 20:00:00 25.1 7 Sudeste 22 Este 0 -- -- 72
2020-08-27 19:00:00 27.3 9 Este 22 Este 0 -- -- 65
2020-08-27 18:00:00 27.6 11 Este 24 Nordeste 0 -- -- 66
2020-08-27 17:00:00 30.3 7 Noroeste 32 Noroeste 0 -- -- 49
2020-08-27 16:00:00 30.8 10 Noroeste 25 Noroeste 0 -- -- 44
2020-08-27 15:00:00 30.7 10 Noroeste 25 Noroeste 0 -- -- 46
2020-08-27 14:00:00 29.3 10 Noroeste 22 Noroeste 0 -- -- 49
2020-08-27 13:00:00 28.3 7 Noroeste 19 Oeste 0 -- -- 55
2020-08-27 12:00:00 26.9 7 Norte 13 Noroeste 0 -- -- 62
2020-08-27 11:00:00 23.7 6 Este 9 Este 0 -- -- 74
2020-08-27 10:00:00 20.8 8 Sudeste 16 Noroeste 0 -- -- 86
2020-08-27 09:00:00 18.6 6 Noroeste 12 Noroeste 0 -- -- 93
2020-08-27 08:00:00 18.6 6 Oeste 9 Oeste 0 -- -- 94
2020-08-27 07:00:00 18.7 5 Noroeste 9 Noroeste 0 -- -- 94
2020-08-27 06:00:00 18.7 0 Calma 5 Noroeste 0 -- -- 94
2020-08-27 05:00:00 18.7 0 Calma 3 Este 0 -- -- 94
2020-08-27 04:00:00 18.7 0 Calma 4 Oeste 0 -- -- 94
2020-08-27 03:00:00 19.2 0 Calma 4 Noroeste 0 -- -- 92
2020-08-27 02:00:00 20.3 0 Calma 5 Oeste 0 -- -- 89
2020-08-27 01:00:00 21.1 0 Calma 4 Oeste 0 -- -- 88
2020-08-27 00:00:00 21.2 0 Calma 5 Sudeste 0 -- -- 86
2020-08-26 23:00:00 21.7 2 Sur 9 Sudeste 0 -- -- 85
2020-08-26 22:00:00 22.8 4 Sur 12 Sudeste 0 -- -- 82
2020-08-26 21:00:00 24.2 3 Este 14 Nordeste 0 -- -- 76
2020-08-26 20:00:00 25.3 4 Este 18 Nordeste 0 -- -- 73
2020-08-26 19:00:00 27.3 9 Nordeste 22 Nordeste 0 -- -- 67
2020-08-26 18:00:00 27.7 12 Este 21 Este 0 -- -- 65
2020-08-26 17:00:00 28.5 8 Este 26 Sudeste 0 -- -- 62
2020-08-26 16:00:00 29.2 10 Nordeste 21 Este 0 -- -- 59
2020-08-26 15:00:00 28.9 9 Este 20 Este 0 -- -- 59
2020-08-26 14:00:00 28.7 9 Este 14 Este 0 -- -- 56
2020-08-26 13:00:00 27.2 5 Sudeste 13 Este 0 -- -- 60
2020-08-26 12:00:00 25.6 3 Norte 10 Noroeste 0 -- -- 65
2020-08-26 11:00:00 23.8 3 Este 11 Noroeste 0 -- -- 72
2020-08-26 10:00:00 22.1 3 Norte 9 Nordeste 0 -- -- 77
2020-08-26 09:00:00 20.9 4 Este 5 Este 0 -- -- 83
2020-08-26 08:00:00 19.9 2 Sudeste 4 Sur 0 -- -- 88
2020-08-26 07:00:00 20 0 Calma 0 Calma 0 -- -- 89
2020-08-26 06:00:00 20.3 0 Calma 3 Sudoeste 0 -- -- 90
2020-08-26 05:00:00 20.4 0 Calma 4 Este 0 -- -- 90
2020-08-26 04:00:00 20.9 3 Sudeste 7 Sudeste 0 -- -- 88
2020-08-26 03:00:00 21 3 Sudeste 5 Sudeste 0 -- -- 88
2020-08-26 02:00:00 21.1 2 Sur 6 Sudeste 0 -- -- 87
2020-08-26 01:00:00 21.5 2 Sur 6 Sudeste 0 -- -- 85
2020-08-26 00:00:00 21.6 2 Sudeste 13 Sudeste 0 -- -- 84
2020-08-25 23:00:00 21.7 6 Sudeste 13 Sudeste 0 -- -- 83
2020-08-25 22:00:00 21.8 3 Sudeste 12 Este 0 -- -- 81
2020-08-25 21:00:00 23.2 3 Este 20 Nordeste 0 -- -- 75
2020-08-25 20:00:00 25.6 7 Nordeste 20 Este 0 -- -- 67
2020-08-25 19:00:00 27.6 8 Este 22 Norte 0 -- -- 60
2020-08-25 18:00:00 29.3 9 Nordeste 31 Este 0 -- -- 55
2020-08-25 17:00:00 31.8 6 Norte 31 Noroeste 0 -- -- 37
2020-08-25 16:00:00 31.3 12 Noroeste 26 Noroeste 0 -- -- 37
2020-08-25 15:00:00 30.9 15 Noroeste 27 Noroeste 0 -- -- 38
2020-08-25 14:00:00 30.1 8 Oeste 19 Noroeste 0 -- -- 39
2020-08-25 13:00:00 28.3 6 Noroeste 16 Noroeste 0 -- -- 42
2020-08-25 12:00:00 24.4 4 Este 9 Sudeste 0 -- -- 58
2020-08-25 11:00:00 20.6 3 Este 8 Sudeste 0 -- -- 75
2020-08-25 10:00:00 17.5 0 Calma 5 Este 0 -- -- 85
2020-08-25 09:00:00 14.8 2 Este 8 Noroeste 0 -- -- 96
2020-08-25 08:00:00 13.4 4 Oeste 7 Noroeste 0 -- -- 96
2020-08-25 07:00:00 13.9 0 Calma 7 Oeste 0 -- -- 96
2020-08-25 06:00:00 14.2 0 Calma 3 Oeste 0 -- -- 95
2020-08-25 05:00:00 14.7 0 Calma 3 Este 0 -- -- 95
2020-08-25 04:00:00 15.3 0 Calma 6 Oeste 0 -- -- 94
2020-08-25 03:00:00 15.7 0 Calma 2 Sudoeste 0 -- -- 93
2020-08-25 02:00:00 16.2 0 Calma 2 Oeste 0 -- -- 92
2020-08-25 01:00:00 16.9 0 Calma 3 Sudoeste 0 -- -- 90
2020-08-25 00:00:00 17.9 0 Calma 4 Oeste 0 -- -- 87
2020-08-24 23:00:00 19 0 Calma 4 Este 0 -- -- 83
2020-08-24 22:00:00 21 2 Sudeste 9 Sudeste 0 -- -- 76
2020-08-24 21:00:00 23 5 Sudeste 13 Este 0 -- -- 70
2020-08-24 20:00:00 25.3 6 Este 19 Este 0 -- -- 62
2020-08-24 19:00:00 27.4 10 Este 19 Este 0 -- -- 55
2020-08-24 18:00:00 28.3 9 Este 21 Este 0 -- -- 52
2020-08-24 17:00:00 27.9 9 Sudeste 16 Este 0 -- -- 53
2020-08-24 16:00:00 27.3 9 Este 18 Este 0 -- -- 55
2020-08-24 15:00:00 25.7 8 Sudeste 18 Este 0 -- -- 59
2020-08-24 14:00:00 24.9 9 Este 19 Este 0 -- -- 60
2020-08-24 13:00:00 23.7 10 Este 17 Sudeste 0 -- -- 63
2020-08-24 12:00:00 22.6 7 Este 15 Este 0 -- -- 64
2020-08-24 11:00:00 21.4 6 Este 13 Este 0 -- -- 70
2020-08-24 10:00:00 19.9 4 Sudeste 8 Este 0 -- -- 78
2020-08-24 09:00:00 17.2 0 Calma 4 Este 0 -- -- 90
2020-08-24 08:00:00 17.4 0 Calma 8 Sudeste 0 -- -- 88
2020-08-24 07:00:00 17.5 2 Sur 6 Sudeste 0 -- -- 89
2020-08-24 06:00:00 17.6 0 Calma 6 Sur 0 -- -- 88
2020-08-24 05:00:00 17.7 4 Sudeste 7 Sudeste 0 -- -- 87
2020-08-24 04:00:00 18 5 Sudeste 8 Sudeste 0 -- -- 85
2020-08-24 03:00:00 18.1 4 Sudeste 8 Sudeste 0 -- -- 84
2020-08-24 02:00:00 18.3 4 Sudeste 13 Este 0 -- -- 83
2020-08-24 01:00:00 18.4 6 Sudeste 11 Sudeste 0 -- -- 81
2020-08-24 00:00:00 18.5 5 Sudeste 11 Este 0 -- -- 81
2020-08-23 23:00:00 18.8 2 Este 10 Sudeste 0 -- -- 79
2020-08-23 22:00:00 18.9 5 Este 17 Este 0 -- -- 78
2020-08-23 21:00:00 19.7 6 Sudeste 17 Este 0 -- -- 74
2020-08-23 20:00:00 20.5 8 Este 21 Este 0 -- -- 72
2020-08-23 19:00:00 21.7 8 Este 27 Nordeste 0 -- -- 71
2020-08-23 18:00:00 23.1 8 Nordeste 27 Este 0 -- -- 67
2020-08-23 17:00:00 24.9 10 Este 22 Sudeste 0 -- -- 62
2020-08-23 16:00:00 25.7 8 Sudeste 20 Este 0 -- -- 56
2020-08-23 15:00:00 25.3 8 Este 17 Este 0 -- -- 56
2020-08-23 14:00:00 24.5 6 Este 17 Sudeste 0 -- -- 58
2020-08-23 13:00:00 23.2 7 Sudeste 14 Este 0 -- -- 61
2020-08-23 12:00:00 22.4 5 Sudeste 13 Este 0 -- -- 64
2020-08-23 11:00:00 20 0 Calma 7 Oeste 0 -- -- 70
2020-08-23 10:00:00 18.6 4 Noroeste 12 Norte 0 -- -- 74
2020-08-23 09:00:00 17.1 0 Calma 4 Noroeste 0 -- -- 86
2020-08-23 08:00:00 16 0 Calma 3 Oeste 0 -- -- 89
2020-08-23 07:00:00 16.7 0 Calma 3 Noroeste 0 -- -- 86
2020-08-23 06:00:00 16.8 3 Oeste 5 Oeste 0 -- -- 85
2020-08-23 05:00:00 16.9 0 Calma 2 Sudoeste 0 -- -- 86
2020-08-23 04:00:00 17 0 Calma 2 Sur 0 -- -- 86
2020-08-23 03:00:00 17 0 Calma 6 Oeste 0 -- -- 86
2020-08-23 02:00:00 16.9 0 Calma 0 Calma 0 -- -- 84
2020-08-23 01:00:00 16.8 0 Calma 2 Oeste 0 -- -- 86
2020-08-23 00:00:00 16.7 2 Sudoeste 4 Oeste 0 -- -- 84
2020-08-22 23:00:00 18.1 3 Sur 12 Sudeste 0 -- -- 78
2020-08-22 22:00:00 19.2 5 Norte 15 Norte 0 -- -- 72
2020-08-22 21:00:00 20 9 Norte 18 Norte 0 -- -- 70
2020-08-22 20:00:00 21.8 4 Nordeste 21 Este 0 -- -- 62
2020-08-22 19:00:00 22.4 4 Nordeste 27 Noroeste 0 -- -- 58
2020-08-22 18:00:00 23.1 8 Nordeste 27 Este 0 -- -- 56
2020-08-22 17:00:00 25.1 9 Nordeste 24 Este 0 -- -- 52
2020-08-22 16:00:00 25.6 8 Este 20 Este 0 -- -- 48
2020-08-22 15:00:00 25.2 4 Sur 13 Noroeste 0 -- -- 44
2020-08-22 14:00:00 24.4 5 Oeste 14 Oeste 0 -- -- 48
2020-08-22 13:00:00 22.7 5 Oeste 17 Noroeste 0 -- -- 50
2020-08-22 12:00:00 20.9 5 Oeste 11 Noroeste 0 -- -- 57
2020-08-22 11:00:00 18 4 Este 9 Este 0 -- -- 75
2020-08-22 10:00:00 14.8 2 Nordeste 5 Sudoeste 0 -- -- 91
2020-08-22 09:00:00 12.8 0 Calma 8 Oeste 0 -- -- 96
2020-08-22 08:00:00 12.2 5 Oeste 9 Oeste 0 -- -- 95
2020-08-22 07:00:00 12.6 3 Sudoeste 7 Norte 0 -- -- 95
2020-08-22 06:00:00 13.2 0 Calma 5 Noroeste 0 -- -- 93
2020-08-22 05:00:00 14.5 0 Calma 8 Sudoeste 0 -- -- 91
2020-08-22 04:00:00 15.2 7 Sudoeste 12 Oeste 0 -- -- 90
2020-08-22 03:00:00 15.9 4 Oeste 8 Oeste 0 -- -- 88
2020-08-22 02:00:00 16.8 0 Calma 6 Oeste 0 -- -- 87
2020-08-22 01:00:00 17.4 2 Noroeste 9 Sudeste 0 -- -- 86
2020-08-22 00:00:00 18.3 4 Sur 11 Sudeste 0 -- -- 83
2020-08-21 23:00:00 19.1 6 Sudeste 11 Este 0 -- -- 80
2020-08-21 22:00:00 19.5 3 Oeste 6 Sudoeste 0 -- -- 72
2020-08-21 21:00:00 21.5 3 Sur 14 Noroeste 0 -- -- 67
2020-08-21 20:00:00 23.2 4 Sudoeste 15 Noroeste 0 -- -- 58
2020-08-21 19:00:00 23.8 11 Noroeste 32 Noroeste 0 -- -- 56
2020-08-21 18:00:00 24.5 16 Noroeste 35 Noroeste 0 -- -- 56
2020-08-21 17:00:00 25.2 18 Noroeste 35 Noroeste 0 -- -- 53
2020-08-21 16:00:00 25.5 18 Noroeste 32 Noroeste 0 -- -- 51
2020-08-21 15:00:00 25.6 12 Noroeste 28 Noroeste 0 -- -- 51
2020-08-21 14:00:00 25.3 10 Noroeste 19 Noroeste 0 -- -- 47
2020-08-21 13:00:00 24.5 9 Noroeste 18 Noroeste 0 -- -- 46
2020-08-21 12:00:00 23.5 3 Oeste 14 Oeste 0 -- -- 44
2020-08-21 11:00:00 20.4 4 Nordeste 8 Norte 0 -- -- 54
2020-08-21 10:00:00 16.4 3 Nordeste 8 Este 0 -- -- 70
2020-08-21 09:00:00 13.6 2 Nordeste 4 Este 0 -- -- 82
2020-08-21 08:00:00 11.6 0 Calma 4 Sudoeste 0 -- -- 89
2020-08-21 07:00:00 12.7 0 Calma 3 Este 0 -- -- 86
2020-08-21 06:00:00 13 0 Calma 4 Noroeste 0 -- -- 88
2020-08-21 05:00:00 13.2 0 Calma 4 Este 0 -- -- 83
2020-08-21 04:00:00 14.1 2 Noroeste 6 Noroeste 0 -- -- 82
2020-08-21 03:00:00 15.1 0 Calma 7 Oeste 0 -- -- 73
2020-08-21 02:00:00 15.3 3 Sudoeste 6 Sudoeste 0 -- -- 73
2020-08-21 01:00:00 16.7 0 Calma 6 Sudeste 0 -- -- 72
2020-08-21 00:00:00 18.4 2 Sur 11 Este 0 -- -- 82